Time;durP1;ratioP1;P1;durP2;ratioP2;P2;SDS_P1;SDS_P2;PMS_P1;PMS_P2;Temp;Humidity;BMP_temperature;BMP_pressure;BME280_temperature;BME280_humidity;BME280_pressure;Samples;Min_cycle;Max_cycle;Signal;HPM_P1;HPM_P2
2022/07/02 00:01:52;;;;;;;11.35;5.15;;;;;;;;;;5071284;28;20028;-60
2022/07/02 00:04:20;;;;;;;8.85;4.60;;;;;;;;;;5070941;28;20483;-61
2022/07/02 00:06:47;;;;;;;14.43;7.53;;;;;;;;;;5071663;28;20040;-61
2022/07/02 00:09:14;;;;;;;8.00;4.50;;;;;;;;;;5070928;28;20052;-61
2022/07/02 00:11:41;;;;;;;6.68;4.70;;;;;;;;;;5071116;28;20025;-60
2022/07/02 00:14:08;;;;;;;8.40;5.07;;;;;;;;;;5070987;28;20065;-72
2022/07/02 00:16:35;;;;;;;9.18;4.75;;;;;;;;;;5070986;28;20033;-61
2022/07/02 00:19:01;;;;;;;8.77;4.80;;;;;;;;;;5071155;28;20032;-61
2022/07/02 00:21:27;;;;;;;9.35;4.90;;;;;;;;;;5070952;28;20050;-73
2022/07/02 00:23:53;;;;;;;8.15;4.53;;;;;;;;;;5071386;28;20036;-64
2022/07/02 00:26:19;;;;;;;8.68;4.97;;;;;;;;;;5070824;28;20078;-62
2022/07/02 00:28:47;;;;;;;9.43;5.07;;;;;;;;;;5069950;28;20048;-62
2022/07/02 00:31:13;;;;;;;9.05;4.50;;;;;;;;;;5070788;28;20489;-63
2022/07/02 00:33:40;;;;;;;6.75;4.68;;;;;;;;;;5070795;28;20537;-61
2022/07/02 00:36:06;;;;;;;9.35;5.03;;;;;;;;;;5071098;28;20467;-73
2022/07/02 00:38:32;;;;;;;15.02;9.30;;;;;;;;;;5070774;28;20064;-62
2022/07/02 00:41:00;;;;;;;18.58;10.50;;;;;;;;;;5070785;28;20037;-62
2022/07/02 00:43:26;;;;;;;8.65;4.50;;;;;;;;;;5070641;28;20059;-61
2022/07/02 00:45:54;;;;;;;8.23;4.57;;;;;;;;;;5070541;28;20056;-62
2022/07/02 00:48:20;;;;;;;10.95;5.50;;;;;;;;;;5070278;28;20044;-61
2022/07/02 00:50:46;;;;;;;17.70;9.68;;;;;;;;;;5070072;28;20111;-69
2022/07/02 00:53:12;;;;;;;18.08;10.63;;;;;;;;;;5070475;28;20541;-71
2022/07/02 00:55:38;;;;;;;6.55;4.60;;;;;;;;;;5070667;28;20032;-62
2022/07/02 00:58:04;;;;;;;17.38;9.35;;;;;;;;;;5070188;28;20028;-72
2022/07/02 01:00:30;;;;;;;18.23;10.88;;;;;;;;;;5070444;28;20395;-65
2022/07/02 01:02:57;;;;;;;12.27;7.40;;;;;;;;;;5070202;28;20542;-63
2022/07/02 01:05:23;;;;;;;9.43;5.18;;;;;;;;;;5070450;28;20040;-64
2022/07/02 01:10:40;;;;;;;13.98;8.52;;;;;;;;;;5065681;28;20071;-69
2022/07/02 01:13:08;;;;;;;9.90;5.97;;;;;;;;;;5068668;28;20023;-69
2022/07/02 01:15:34;;;;;;;9.30;5.35;;;;;;;;;;5070317;28;20099;-72
2022/07/02 01:18:02;;;;;;;13.77;6.03;;;;;;;;;;5070093;28;20101;-63
2022/07/02 01:20:28;;;;;;;8.90;5.53;;;;;;;;;;5070313;28;20020;-72
2022/07/02 01:22:54;;;;;;;10.88;5.10;;;;;;;;;;5070374;28;20120;-62
2022/07/02 01:25:22;;;;;;;8.15;5.70;;;;;;;;;;5070159;28;20055;-72
2022/07/02 01:27:48;;;;;;;7.90;5.13;;;;;;;;;;5069877;28;20068;-61
2022/07/02 01:30:14;;;;;;;9.23;5.30;;;;;;;;;;5070192;28;20032;-62
2022/07/02 01:32:40;;;;;;;10.43;4.80;;;;;;;;;;5070207;28;20032;-71
2022/07/02 01:35:08;;;;;;;10.18;5.28;;;;;;;;;;5069960;28;20374;-61
2022/07/02 01:37:37;;;;;;;12.00;7.22;;;;;;;;;;5070262;28;20366;-61
2022/07/02 01:40:03;;;;;;;10.32;5.30;;;;;;;;;;5070381;28;20025;-61
2022/07/02 01:42:29;;;;;;;10.05;5.57;;;;;;;;;;5070224;28;20020;-62
2022/07/02 01:44:55;;;;;;;6.95;5.65;;;;;;;;;;5070120;28;20106;-62
2022/07/02 01:47:21;;;;;;;12.32;6.07;;;;;;;;;;5069995;28;20032;-61
2022/07/02 01:49:47;;;;;;;15.30;6.85;;;;;;;;;;5069535;28;20110;-62
2022/07/02 01:52:14;;;;;;;12.70;5.32;;;;;;;;;;5069848;28;20103;-61
2022/07/02 01:54:41;;;;;;;8.45;5.30;;;;;;;;;;5069926;28;20074;-64
2022/07/02 01:57:07;;;;;;;9.10;4.93;;;;;;;;;;5051606;28;20544;-73
2022/07/02 01:59:33;;;;;;;9.82;4.93;;;;;;;;;;5069947;28;20038;-62
2022/07/02 02:01:59;;;;;;;6.68;4.80;;;;;;;;;;5071350;28;20031;-61
2022/07/02 02:04:25;;;;;;;7.25;5.00;;;;;;;;;;5074254;28;20523;-61
2022/07/02 02:06:51;;;;;;;11.50;5.00;;;;;;;;;;5055945;28;20451;-62
2022/07/02 02:09:17;;;;;;;11.52;6.18;;;;;;;;;;5055221;28;20103;-61
2022/07/02 02:11:43;;;;;;;14.38;8.95;;;;;;;;;;5073222;28;20025;-61
2022/07/02 02:14:09;;;;;;;16.27;6.00;;;;;;;;;;5073242;28;20044;-60
2022/07/02 02:16:36;;;;;;;12.00;6.57;;;;;;;;;;5073480;28;20033;-60
2022/07/02 02:19:02;;;;;;;13.88;6.00;;;;;;;;;;5073138;28;20036;-60
2022/07/02 02:21:29;;;;;;;12.60;6.13;;;;;;;;;;5072995;28;20036;-60
2022/07/02 02:23:55;;;;;;;11.02;5.75;;;;;;;;;;5073086;28;20069;-61
2022/07/02 02:26:22;;;;;;;12.90;6.03;;;;;;;;;;5073003;28;20036;-60
2022/07/02 02:28:48;;;;;;;12.32;6.03;;;;;;;;;;5072320;28;20047;-60
2022/07/02 02:31:14;;;;;;;11.27;6.35;;;;;;;;;;5072737;28;20162;-61
2022/07/02 02:33:41;;;;;;;18.27;8.93;;;;;;;;;;5072806;28;20020;-60
2022/07/02 02:36:07;;;;;;;12.30;6.95;;;;;;;;;;5072944;28;20021;-61
2022/07/02 02:38:36;;;;;;;11.95;7.13;;;;;;;;;;5072895;28;20031;-66
2022/07/02 02:41:05;;;;;;;13.02;8.05;;;;;;;;;;5072845;28;20378;-67
2022/07/02 02:43:32;;;;;;;13.98;8.02;;;;;;;;;;5072578;28;20472;-68
2022/07/02 02:45:58;;;;;;;13.13;8.23;;;;;;;;;;5072681;28;20016;-67
2022/07/02 02:48:24;;;;;;;16.40;9.73;;;;;;;;;;5072956;28;20487;-68
2022/07/02 02:50:50;;;;;;;18.40;10.23;;;;;;;;;;5072300;28;20107;-65
2022/07/02 02:53:16;;;;;;;19.05;10.70;;;;;;;;;;5072402;28;20029;-68
2022/07/02 02:55:42;;;;;;;16.52;9.88;;;;;;;;;;5072431;28;20028;-67
2022/07/02 02:58:08;;;;;;;19.20;11.20;;;;;;;;;;5072579;28;20482;-66
2022/07/02 03:00:34;;;;;;;20.17;11.23;;;;;;;;;;5072344;28;20035;-67
2022/07/02 03:03:00;;;;;;;17.92;10.40;;;;;;;;;;5072186;28;20100;-69
2022/07/02 03:05:26;;;;;;;14.30;9.75;;;;;;;;;;5072170;28;20036;-67
2022/07/02 03:07:52;;;;;;;24.27;10.90;;;;;;;;;;5054129;28;20025;-68
2022/07/02 03:10:18;;;;;;;16.33;10.07;;;;;;;;;;5072314;28;20107;-68
2022/07/02 03:12:45;;;;;;;26.65;11.00;;;;;;;;;;5072426;28;20025;-67
2022/07/02 03:15:11;;;;;;;20.45;9.02;;;;;;;;;;5071705;28;20028;-67
2022/07/02 03:17:37;;;;;;;23.48;9.27;;;;;;;;;;5072371;28;20394;-66
2022/07/02 03:20:03;;;;;;;16.27;8.77;;;;;;;;;;5071955;28;20039;-65
2022/07/02 03:22:29;;;;;;;22.45;9.65;;;;;;;;;;5071846;28;20037;-65
2022/07/02 03:24:56;;;;;;;35.53;9.63;;;;;;;;;;5071977;28;20025;-65
2022/07/02 03:27:22;;;;;;;32.08;9.52;;;;;;;;;;5071237;28;20032;-68
2022/07/02 03:29:48;;;;;;;18.35;8.60;;;;;;;;;;5071567;28;20041;-67
2022/07/02 03:32:14;;;;;;;17.65;8.38;;;;;;;;;;5071755;28;20028;-65
2022/07/02 03:34:40;;;;;;;26.35;8.77;;;;;;;;;;5071561;28;20051;-70
2022/07/02 03:37:06;;;;;;;23.33;8.68;;;;;;;;;;5071562;28;20031;-67
2022/07/02 03:39:32;;;;;;;24.85;7.80;;;;;;;;;;5053055;28;20519;-66
2022/07/02 03:41:58;;;;;;;19.23;7.30;;;;;;;;;;5071443;28;20100;-70
2022/07/02 03:44:24;;;;;;;24.80;7.78;;;;;;;;;;5071390;28;20162;-68
2022/07/02 03:46:50;;;;;;;16.60;7.18;;;;;;;;;;5071064;28;20031;-67
2022/07/02 03:49:16;;;;;;;23.35;7.00;;;;;;;;;;5071240;28;20033;-67
2022/07/02 03:51:42;;;;;;;21.17;6.90;;;;;;;;;;5070603;28;20025;-67
2022/07/02 03:54:08;;;;;;;19.25;6.53;;;;;;;;;;5071268;28;20024;-67
2022/07/02 03:56:34;;;;;;;18.25;6.55;;;;;;;;;;5071023;28;20105;-68
2022/07/02 03:59:00;;;;;;;20.67;5.95;;;;;;;;;;5070980;28;20029;-67
2022/07/02 04:01:26;;;;;;;15.05;5.60;;;;;;;;;;5070950;28;20098;-67
2022/07/02 04:03:52;;;;;;;25.10;6.90;;;;;;;;;;5070943;28;20020;-67
2022/07/02 04:06:18;;;;;;;22.13;5.90;;;;;;;;;;5070965;28;20096;-67
2022/07/02 04:08:44;;;;;;;15.85;5.43;;;;;;;;;;5071057;28;20086;-69
2022/07/02 04:11:11;;;;;;;27.35;5.95;;;;;;;;;;5070538;28;20039;-68
2022/07/02 04:13:37;;;;;;;19.58;5.00;;;;;;;;;;5070933;28;20024;-69
2022/07/02 04:16:03;;;;;;;21.98;4.50;;;;;;;;;;5070507;28;20379;-68
2022/07/02 04:18:29;;;;;;;19.88;4.95;;;;;;;;;;5071022;28;20055;-70
2022/07/02 04:20:55;;;;;;;13.73;4.25;;;;;;;;;;5070512;28;20081;-68
2022/07/02 04:23:21;;;;;;;12.68;4.20;;;;;;;;;;5070868;28;20033;-68
2022/07/02 04:25:47;;;;;;;11.65;3.72;;;;;;;;;;5070130;28;20028;-68
2022/07/02 04:28:13;;;;;;;14.02;3.88;;;;;;;;;;5070191;28;20106;-68
2022/07/02 04:30:39;;;;;;;13.80;3.30;;;;;;;;;;5070752;28;20047;-71
2022/07/02 04:33:05;;;;;;;11.15;3.30;;;;;;;;;;5070876;28;20154;-69
2022/07/02 04:35:31;;;;;;;14.02;4.13;;;;;;;;;;5070797;28;20455;-71
2022/07/02 04:37:57;;;;;;;12.48;4.13;;;;;;;;;;5070473;28;20052;-67
2022/07/02 04:40:24;;;;;;;16.13;3.72;;;;;;;;;;5070946;28;20101;-68
2022/07/02 04:42:50;;;;;;;14.65;3.45;;;;;;;;;;5070805;28;20029;-68
2022/07/02 04:45:16;;;;;;;12.20;4.10;;;;;;;;;;5071040;28;20040;-72
2022/07/02 04:47:42;;;;;;;13.88;3.60;;;;;;;;;;5070367;28;20035;-71
2022/07/02 04:50:08;;;;;;;14.77;3.55;;;;;;;;;;5068830;28;20035;-69
2022/07/02 04:52:34;;;;;;;16.33;3.63;;;;;;;;;;5064639;28;20626;-68
2022/07/02 04:55:00;;;;;;;15.63;3.13;;;;;;;;;;5070617;28;20067;-68
2022/07/02 04:57:26;;;;;;;11.48;3.50;;;;;;;;;;5070564;28;20033;-70
2022/07/02 04:59:52;;;;;;;8.27;3.00;;;;;;;;;;5070601;28;20033;-68
2022/07/02 05:02:18;;;;;;;13.90;3.28;;;;;;;;;;5070199;28;20028;-67
2022/07/02 05:04:44;;;;;;;9.60;3.33;;;;;;;;;;5070131;28;20052;-67
2022/07/02 05:07:10;;;;;;;11.40;2.97;;;;;;;;;;5069941;28;20032;-68
2022/07/02 05:09:36;;;;;;;11.73;4.13;;;;;;;;;;5070200;28;20032;-71
2022/07/02 05:12:03;;;;;;;16.83;3.58;;;;;;;;;;5070168;28;20098;-70
2022/07/02 05:14:29;;;;;;;11.98;3.58;;;;;;;;;;5070191;28;20426;-65
2022/07/02 05:16:55;;;;;;;15.13;3.20;;;;;;;;;;5070357;28;20047;-63
2022/07/02 05:19:21;;;;;;;17.23;3.30;;;;;;;;;;5069964;28;20037;-73
2022/07/02 05:21:47;;;;;;;16.27;3.45;;;;;;;;;;5069775;28;20036;-73
2022/07/02 05:24:13;;;;;;;16.50;3.03;;;;;;;;;;5060323;28;20037;-64
2022/07/02 05:26:39;;;;;;;11.73;2.85;;;;;;;;;;5051485;28;20036;-67
2022/07/02 05:29:05;;;;;;;13.07;2.88;;;;;;;;;;5056819;28;20047;-63
2022/07/02 05:31:31;;;;;;;17.63;2.83;;;;;;;;;;5049751;28;20065;-72
2022/07/02 05:33:57;;;;;;;19.30;3.25;;;;;;;;;;5052504;28;20045;-64
2022/07/02 05:36:23;;;;;;;14.02;3.65;;;;;;;;;;5070024;28;20028;-63
2022/07/02 05:38:49;;;;;;;15.98;2.97;;;;;;;;;;5073015;28;20025;-62
2022/07/02 05:41:15;;;;;;;13.85;3.10;;;;;;;;;;5073727;28;20103;-67
2022/07/02 05:43:41;;;;;;;16.08;3.10;;;;;;;;;;5073884;28;20025;-64
2022/07/02 05:46:07;;;;;;;14.65;3.08;;;;;;;;;;5073912;28;20020;-64
2022/07/02 05:48:36;;;;;;;9.75;3.10;;;;;;;;;;5073412;28;20044;-64
2022/07/02 05:51:02;;;;;;;11.68;2.85;;;;;;;;;;5073886;28;20453;-63
2022/07/02 05:53:28;;;;;;;13.35;2.85;;;;;;;;;;5073254;28;20095;-62
2022/07/02 05:55:54;;;;;;;11.77;3.45;;;;;;;;;;5073212;28;20028;-64
2022/07/02 05:58:20;;;;;;;12.70;3.63;;;;;;;;;;5073453;28;20029;-63
2022/07/02 06:00:46;;;;;;;13.43;3.60;;;;;;;;;;5073664;28;20547;-63
2022/07/02 06:03:12;;;;;;;7.25;3.65;;;;;;;;;;5073538;28;20027;-64
2022/07/02 06:08:23;;;;;;;11.25;3.80;;;;;;;;;;5062946;28;20516;-63
2022/07/02 06:10:49;;;;;;;12.32;4.05;;;;;;;;;;5061274;28;20024;-62
2022/07/02 06:13:16;;;;;;;11.27;4.00;;;;;;;;;;5072773;28;20031;-63
2022/07/02 06:15:42;;;;;;;13.13;4.00;;;;;;;;;;5073104;28;20028;-62
2022/07/02 06:18:08;;;;;;;11.35;3.90;;;;;;;;;;5073355;28;20020;-61
2022/07/02 06:20:35;;;;;;;11.85;4.15;;;;;;;;;;5072897;28;20021;-61
2022/07/02 06:23:01;;;;;;;14.40;4.45;;;;;;;;;;5072926;28;20024;-73
2022/07/02 06:25:27;;;;;;;11.90;4.20;;;;;;;;;;5073096;28;20039;-62
2022/07/02 06:27:53;;;;;;;18.85;4.68;;;;;;;;;;5072437;28;20049;-61
2022/07/02 06:30:19;;;;;;;12.45;4.28;;;;;;;;;;5072809;28;20473;-61
2022/07/02 06:32:45;;;;;;;13.05;4.35;;;;;;;;;;5072965;28;20487;-69
2022/07/02 06:35:11;;;;;;;10.15;3.75;;;;;;;;;;5072899;28;20032;-71
2022/07/02 06:37:37;;;;;;;13.18;4.18;;;;;;;;;;5072355;28;20013;-69
2022/07/02 06:40:04;;;;;;;9.77;4.03;;;;;;;;;;5072718;28;20472;-64
2022/07/02 06:42:30;;;;;;;9.63;3.72;;;;;;;;;;5072536;28;20043;-62
2022/07/02 06:44:58;;;;;;;8.05;4.05;;;;;;;;;;5072375;28;20031;-73
2022/07/02 06:47:24;;;;;;;11.38;3.78;;;;;;;;;;5072523;28;20070;-62
2022/07/02 06:49:50;;;;;;;10.65;4.53;;;;;;;;;;5071394;28;20035;-62
2022/07/02 06:52:17;;;;;;;11.27;4.20;;;;;;;;;;5072371;28;20020;-61
2022/07/02 06:54:43;;;;;;;11.27;3.65;;;;;;;;;;5072724;28;20103;-62
2022/07/02 06:57:10;;;;;;;7.55;3.90;;;;;;;;;;5069698;28;20037;-73
2022/07/02 06:59:36;;;;;;;11.00;3.78;;;;;;;;;;5072312;28;20055;-61
2022/07/02 07:02:03;;;;;;;8.02;4.20;;;;;;;;;;5072027;28;20032;-71
2022/07/02 07:04:29;;;;;;;12.27;3.70;;;;;;;;;;5072307;28;20041;-62
2022/07/02 07:06:56;;;;;;;9.02;3.80;;;;;;;;;;5072101;28;20031;-69
2022/07/02 07:09:22;;;;;;;8.15;3.70;;;;;;;;;;5072033;28;20472;-63
2022/07/02 07:11:48;;;;;;;8.77;3.15;;;;;;;;;;5071976;28;20098;-61
2022/07/02 07:14:14;;;;;;;12.90;3.95;;;;;;;;;;5071960;28;20036;-56
2022/07/02 07:16:41;;;;;;;11.13;3.88;;;;;;;;;;5071921;28;20353;-67
2022/07/02 07:19:07;;;;;;;11.35;3.50;;;;;;;;;;5072080;28;20439;-57
2022/07/02 07:21:33;;;;;;;6.60;3.67;;;;;;;;;;5071875;28;20031;-57
2022/07/02 07:23:59;;;;;;;10.07;2.78;;;;;;;;;;5071652;28;20032;-57
2022/07/02 07:26:25;;;;;;;10.20;3.45;;;;;;;;;;5071146;28;20024;-64
2022/07/02 07:28:52;;;;;;;9.52;3.28;;;;;;;;;;5071131;28;20041;-69
2022/07/02 07:31:20;;;;;;;13.23;3.38;;;;;;;;;;5068277;28;20029;-59
2022/07/02 07:33:52;;;;;;;11.77;3.50;;;;;;;;;;5070720;28;20032;-58
2022/07/02 07:36:19;;;;;;;21.20;4.38;;;;;;;;;;5070826;28;20502;-57
2022/07/02 07:38:46;;;;;;;12.85;3.80;;;;;;;;;;5071164;28;20512;-66
2022/07/02 07:41:12;;;;;;;11.55;3.42;;;;;;;;;;5071298;28;20090;-56
2022/07/02 07:43:38;;;;;;;13.68;3.80;;;;;;;;;;5071092;28;20044;-56
2022/07/02 07:46:04;;;;;;;14.68;3.53;;;;;;;;;;5071595;28;20032;-57
2022/07/02 07:48:30;;;;;;;12.48;2.95;;;;;;;;;;5070942;28;20032;-62
2022/07/02 07:50:56;;;;;;;15.27;2.97;;;;;;;;;;5070834;28;20028;-59
2022/07/02 07:53:22;;;;;;;11.48;2.90;;;;;;;;;;5070761;28;20583;-59
2022/07/02 07:55:48;;;;;;;16.98;2.83;;;;;;;;;;5070635;28;20032;-56
2022/07/02 07:58:15;;;;;;;11.60;2.80;;;;;;;;;;5070978;28;20040;-57
2022/07/02 08:00:41;;;;;;;8.65;2.65;;;;;;;;;;5061955;28;20082;-62
2022/07/02 08:03:07;;;;;;;8.48;2.50;;;;;;;;;;5063754;28;20025;-57
2022/07/02 08:05:33;;;;;;;24.13;3.72;;;;;;;;;;5070818;28;20028;-57
2022/07/02 08:07:59;;;;;;;8.93;2.65;;;;;;;;;;5070679;28;20128;-66
2022/07/02 08:10:26;;;;;;;8.88;2.53;;;;;;;;;;5071017;28;20022;-57
2022/07/02 08:12:52;;;;;;;13.30;2.80;;;;;;;;;;5070897;28;20063;-57
2022/07/02 08:15:18;;;;;;;9.60;2.40;;;;;;;;;;5070931;28;20365;-57
2022/07/02 08:17:44;;;;;;;9.50;2.45;;;;;;;;;;5070272;28;20043;-61
2022/07/02 08:20:11;;;;;;;7.65;2.50;;;;;;;;;;5070217;28;20024;-66
2022/07/02 08:22:37;;;;;;;5.93;2.17;;;;;;;;;;5070431;28;20032;-58
2022/07/02 08:25:04;;;;;;;5.88;2.55;;;;;;;;;;5071185;28;20020;-63
2022/07/02 08:27:30;;;;;;;8.88;2.38;;;;;;;;;;5070461;28;20079;-57
2022/07/02 08:29:56;;;;;;;8.95;2.38;;;;;;;;;;5070715;28;20044;-56
2022/07/02 08:32:23;;;;;;;9.30;2.33;;;;;;;;;;5070579;28;20052;-65
2022/07/02 08:34:49;;;;;;;8.43;2.65;;;;;;;;;;5070668;28;20453;-61
2022/07/02 08:37:16;;;;;;;10.75;2.90;;;;;;;;;;5070365;28;20377;-66
2022/07/02 08:39:42;;;;;;;6.25;2.67;;;;;;;;;;5070714;28;20374;-57
2022/07/02 08:42:09;;;;;;;12.65;2.63;;;;;;;;;;5071061;28;20039;-67
2022/07/02 08:44:36;;;;;;;13.43;2.85;;;;;;;;;;5070665;28;20540;-66
2022/07/02 08:47:04;;;;;;;9.88;2.67;;;;;;;;;;5070747;28;20028;-58
2022/07/02 08:49:31;;;;;;;14.25;2.75;;;;;;;;;;5070353;28;20096;-58
2022/07/02 08:52:06;;;;;;;10.20;2.40;;;;;;;;;;5070444;28;20025;-60
2022/07/02 08:54:32;;;;;;;11.20;2.38;;;;;;;;;;5070442;28;20036;-57
2022/07/02 08:57:00;;;;;;;11.80;2.55;;;;;;;;;;5070066;28;20028;-58
2022/07/02 08:59:26;;;;;;;12.45;2.85;;;;;;;;;;5067545;28;20033;-63
2022/07/02 09:01:52;;;;;;;11.82;2.53;;;;;;;;;;5067119;28;20029;-68
2022/07/02 09:04:19;;;;;;;18.60;3.75;;;;;;;;;;5069967;28;20036;-58
2022/07/02 09:06:47;;;;;;;23.90;4.70;;;;;;;;;;5069934;28;20044;-66
2022/07/02 09:09:13;;;;;;;11.25;3.20;;;;;;;;;;5070432;28;20503;-68
2022/07/02 09:11:40;;;;;;;14.30;2.50;;;;;;;;;;5070173;28;20476;-63
2022/07/02 09:14:08;;;;;;;8.98;2.45;;;;;;;;;;5073715;28;20410;-57
2022/07/02 09:16:34;;;;;;;10.95;2.50;;;;;;;;;;5078157;28;20025;-60
2022/07/02 09:19:00;;;;;;;12.38;2.50;;;;;;;;;;5078885;28;20356;-59
2022/07/02 09:21:26;;;;;;;7.35;2.20;;;;;;;;;;5074110;28;20036;-57
2022/07/02 09:23:52;;;;;;;11.98;2.55;;;;;;;;;;5074027;28;20025;-57
2022/07/02 09:26:19;;;;;;;12.18;2.78;;;;;;;;;;5073929;28;20048;-57
2022/07/02 09:28:55;;;;;;;6.38;2.35;;;;;;;;;;5073664;28;20108;-64
2022/07/02 09:31:21;;;;;;;6.95;2.38;;;;;;;;;;5074075;28;20033;-58
2022/07/02 09:33:47;;;;;;;10.02;2.55;;;;;;;;;;5073933;28;20025;-57
2022/07/02 09:36:14;;;;;;;9.70;2.50;;;;;;;;;;5073893;28;20028;-58
2022/07/02 09:38:43;;;;;;;6.50;2.75;;;;;;;;;;5073858;28;20032;-57
2022/07/02 09:41:13;;;;;;;20.30;4.25;;;;;;;;;;5073991;28;20016;-57
2022/07/02 09:43:40;;;;;;;6.75;2.75;;;;;;;;;;5073999;28;20476;-62
2022/07/02 09:46:16;;;;;;;13.35;3.15;;;;;;;;;;5073868;28;20028;-66
2022/07/02 09:48:42;;;;;;;11.85;3.42;;;;;;;;;;5073319;28;20116;-60
2022/07/02 09:51:08;;;;;;;7.93;2.53;;;;;;;;;;5073295;28;20491;-60
2022/07/02 09:53:34;;;;;;;9.02;1.88;;;;;;;;;;5073325;28;20024;-59
2022/07/02 09:56:04;;;;;;;9.23;2.25;;;;;;;;;;5073313;28;20118;-67
2022/07/02 09:58:30;;;;;;;26.52;8.57;;;;;;;;;;5072984;28;20024;-58
2022/07/02 10:01:01;;;;;;;13.63;3.40;;;;;;;;;;5073264;28;20043;-61
2022/07/02 10:03:28;;;;;;;10.50;2.85;;;;;;;;;;5073465;28;20034;-57
2022/07/02 10:05:54;;;;;;;15.90;4.13;;;;;;;;;;5073254;28;20021;-57
2022/07/02 10:08:21;;;;;;;10.20;4.30;;;;;;;;;;5073050;28;20028;-57
2022/07/02 10:10:48;;;;;;;16.77;5.25;;;;;;;;;;5070409;28;20550;-60
2022/07/02 10:13:14;;;;;;;15.25;5.93;;;;;;;;;;5069936;28;20407;-64
2022/07/02 10:15:43;;;;;;;10.30;2.88;;;;;;;;;;5072716;28;20020;-62
2022/07/02 10:18:09;;;;;;;10.30;3.10;;;;;;;;;;5072479;28;20070;-57
2022/07/02 10:20:35;;;;;;;11.98;3.15;;;;;;;;;;5072527;28;20035;-63
2022/07/02 10:23:02;;;;;;;10.07;3.17;;;;;;;;;;5072024;28;20056;-64
2022/07/02 10:25:29;;;;;;;9.23;3.67;;;;;;;;;;5070791;28;20021;-62
2022/07/02 10:27:56;;;;;;;11.23;2.97;;;;;;;;;;5071951;28;20094;-64
2022/07/02 10:30:26;;;;;;;13.68;3.75;;;;;;;;;;5072031;28;20036;-64
2022/07/02 10:32:55;;;;;;;9.82;3.40;;;;;;;;;;5070515;28;20028;-58
2022/07/02 10:35:23;;;;;;;9.57;3.22;;;;;;;;;;5060764;28;20035;-58
2022/07/02 10:37:56;;;;;;;12.32;3.90;;;;;;;;;;5068546;28;20029;-56
2022/07/02 10:40:22;;;;;;;8.93;3.05;;;;;;;;;;5072320;28;20028;-57
2022/07/02 10:42:49;;;;;;;17.42;3.97;;;;;;;;;;5072158;28;20054;-58
2022/07/02 10:45:17;;;;;;;6.57;2.40;;;;;;;;;;5072709;28;20107;-65
2022/07/02 10:48:02;;;;;;;15.35;3.92;;;;;;;;;;5071652;28;20103;-64
2022/07/02 10:50:38;;;;;;;10.07;2.80;;;;;;;;;;5072085;28;20123;-61
2022/07/02 10:53:11;;;;;;;7.60;2.22;;;;;;;;;;5071891;28;20025;-64
2022/07/02 10:55:38;;;;;;;5.75;2.50;;;;;;;;;;5071742;28;20081;-57
2022/07/02 10:58:05;;;;;;;7.70;2.55;;;;;;;;;;5071465;28;20043;-57
2022/07/02 11:00:35;;;;;;;6.80;2.88;;;;;;;;;;5072264;28;20083;-62
2022/07/02 11:03:12;;;;;;;9.43;3.35;;;;;;;;;;5071814;28;20036;-57
2022/07/02 11:05:56;;;;;;;6.72;3.90;;;;;;;;;;5072188;28;20031;-66
2022/07/02 11:08:28;;;;;;;7.10;2.83;;;;;;;;;;5071760;28;20044;-57
2022/07/02 11:10:54;;;;;;;6.40;2.75;;;;;;;;;;5072046;28;20025;-59
2022/07/02 11:13:20;;;;;;;8.65;3.60;;;;;;;;;;5071731;28;20039;-63
2022/07/02 11:15:46;;;;;;;8.82;4.25;;;;;;;;;;5071650;28;20025;-57
2022/07/02 11:18:14;;;;;;;7.20;3.10;;;;;;;;;;5071140;28;20017;-66
2022/07/02 11:20:40;;;;;;;5.90;2.22;;;;;;;;;;5071211;28;20052;-57
2022/07/02 11:23:06;;;;;;;7.68;2.67;;;;;;;;;;5071032;28;20032;-65
2022/07/02 11:25:32;;;;;;;4.97;2.60;;;;;;;;;;5070793;28;20024;-69
2022/07/02 11:27:59;;;;;;;6.57;2.53;;;;;;;;;;5070802;28;20094;-66
2022/07/02 11:30:29;;;;;;;6.10;2.33;;;;;;;;;;5070831;28;20036;-57
2022/07/02 11:32:56;;;;;;;7.78;2.50;;;;;;;;;;5071221;28;20032;-65
2022/07/02 11:35:22;;;;;;;6.07;2.47;;;;;;;;;;5071182;28;20029;-57
2022/07/02 11:37:48;;;;;;;7.30;3.08;;;;;;;;;;5071606;28;20028;-57
2022/07/02 11:40:24;;;;;;;6.63;2.85;;;;;;;;;;5071637;28;20024;-61
2022/07/02 11:42:50;;;;;;;13.02;2.72;;;;;;;;;;5071520;28;20036;-66
2022/07/02 11:45:16;;;;;;;8.07;3.33;;;;;;;;;;5071251;28;20115;-56
2022/07/02 11:47:46;;;;;;;8.55;2.45;;;;;;;;;;5070995;28;20029;-56
2022/07/02 11:50:12;;;;;;;10.35;2.78;;;;;;;;;;5071091;28;20047;-66
2022/07/02 11:52:38;;;;;;;6.53;2.67;;;;;;;;;;5071113;28;20111;-56
2022/07/02 11:55:05;;;;;;;15.27;4.20;;;;;;;;;;5071172;28;20043;-57
2022/07/02 11:57:34;;;;;;;5.05;2.40;;;;;;;;;;5071143;28;20028;-56
2022/07/02 12:00:00;;;;;;;7.07;2.97;;;;;;;;;;5071241;28;20495;-56
2022/07/02 12:02:36;;;;;;;12.52;4.30;;;;;;;;;;5071160;28;20561;-57
2022/07/02 12:05:12;;;;;;;5.82;3.88;;;;;;;;;;5071223;28;20127;-65
2022/07/02 12:07:41;;;;;;;10.57;4.03;;;;;;;;;;5070815;28;20024;-56
2022/07/02 12:10:08;;;;;;;5.95;2.92;;;;;;;;;;5070849;28;20029;-66
2022/07/02 12:12:35;;;;;;;5.93;3.08;;;;;;;;;;5071109;28;20039;-58
2022/07/02 12:15:03;;;;;;;8.98;2.80;;;;;;;;;;5070840;28;20028;-57
2022/07/02 12:17:30;;;;;;;9.48;2.70;;;;;;;;;;5070676;28;20021;-65
2022/07/02 12:19:56;;;;;;;10.20;4.80;;;;;;;;;;5071090;28;20024;-56
2022/07/02 12:22:28;;;;;;;11.75;3.05;;;;;;;;;;5070890;28;20417;-62
2022/07/02 12:24:55;;;;;;;8.82;4.50;;;;;;;;;;5070718;28;20036;-67
2022/07/02 12:27:23;;;;;;;8.93;3.70;;;;;;;;;;5070393;28;20089;-60
2022/07/02 12:30:04;;;;;;;6.28;2.70;;;;;;;;;;5070527;28;20134;-57
2022/07/02 12:32:38;;;;;;;5.00;2.80;;;;;;;;;;5070962;28;20031;-56
2022/07/02 12:35:07;;;;;;;7.53;2.80;;;;;;;;;;5070449;28;20032;-63
2022/07/02 12:37:33;;;;;;;9.68;3.53;;;;;;;;;;5070494;28;20032;-57
2022/07/02 12:40:02;;;;;;;8.15;3.30;;;;;;;;;;5052070;28;20040;-58
2022/07/02 12:42:29;;;;;;;6.60;2.72;;;;;;;;;;5070353;28;20032;-57
2022/07/02 12:44:56;;;;;;;7.68;2.88;;;;;;;;;;5070051;28;20045;-59
2022/07/02 12:47:26;;;;;;;7.25;3.40;;;;;;;;;;5069819;28;20380;-56
2022/07/02 12:49:55;;;;;;;6.20;2.67;;;;;;;;;;5070272;28;20036;-57
2022/07/02 12:52:22;;;;;;;7.32;2.83;;;;;;;;;;5070640;28;20518;-57
2022/07/02 12:54:48;;;;;;;8.38;2.63;;;;;;;;;;5070300;28;20032;-57
2022/07/02 12:57:21;;;;;;;14.90;3.60;;;;;;;;;;5070465;28;20562;-72
2022/07/02 12:59:48;;;;;;;8.18;2.70;;;;;;;;;;5070390;28;20063;-59
2022/07/02 13:02:18;;;;;;;6.65;2.92;;;;;;;;;;5070493;28;20101;-58
2022/07/02 13:04:45;;;;;;;10.20;3.10;;;;;;;;;;5070541;28;20502;-59
2022/07/02 13:07:13;;;;;;;20.15;4.38;;;;;;;;;;5070472;28;20075;-61
2022/07/02 13:09:39;;;;;;;11.82;4.22;;;;;;;;;;5070186;28;20395;-62
2022/07/02 13:12:05;;;;;;;5.82;3.13;;;;;;;;;;5070132;28;20024;-61
2022/07/02 13:14:31;;;;;;;5.60;2.80;;;;;;;;;;5070186;28;20487;-63
2022/07/02 13:16:57;;;;;;;8.50;3.50;;;;;;;;;;5070086;28;20028;-60
2022/07/02 13:19:23;;;;;;;8.70;3.67;;;;;;;;;;5069977;28;20031;-60
2022/07/02 13:21:49;;;;;;;10.45;2.95;;;;;;;;;;5070355;28;20051;-57
2022/07/02 13:24:15;;;;;;;8.55;3.60;;;;;;;;;;5069469;28;20021;-59
2022/07/02 13:26:41;;;;;;;17.02;3.38;;;;;;;;;;5059821;28;20025;-61
2022/07/02 13:29:07;;;;;;;8.98;2.83;;;;;;;;;;5049501;28;20103;-57
2022/07/02 13:31:33;;;;;;;7.35;3.55;;;;;;;;;;5050238;28;20406;-68
2022/07/02 13:34:00;;;;;;;7.10;3.03;;;;;;;;;;5049892;28;20119;-64
2022/07/02 13:36:27;;;;;;;6.70;2.88;;;;;;;;;;5049966;28;20049;-58
2022/07/02 13:38:53;;;;;;;6.68;2.42;;;;;;;;;;5049470;28;20033;-59
2022/07/02 13:41:19;;;;;;;6.32;2.80;;;;;;;;;;5049769;28;20029;-59
2022/07/02 13:43:45;;;;;;;5.63;2.65;;;;;;;;;;5031708;28;20037;-69
2022/07/02 13:46:11;;;;;;;10.20;2.72;;;;;;;;;;5049705;28;20484;-58
2022/07/02 13:48:37;;;;;;;7.50;2.78;;;;;;;;;;5049606;28;20480;-58
2022/07/02 13:51:03;;;;;;;6.05;2.90;;;;;;;;;;5050179;28;20144;-60
2022/07/02 13:53:29;;;;;;;12.27;3.55;;;;;;;;;;5049771;28;20032;-58
2022/07/02 13:55:55;;;;;;;11.65;3.60;;;;;;;;;;5049655;28;20029;-58
2022/07/02 13:58:21;;;;;;;8.25;2.78;;;;;;;;;;5050390;28;20037;-57
2022/07/02 14:00:47;;;;;;;9.68;2.63;;;;;;;;;;5053672;28;20049;-57
2022/07/02 14:03:13;;;;;;;5.05;2.75;;;;;;;;;;5053558;28;20053;-62
2022/07/02 14:05:39;;;;;;;5.40;2.38;;;;;;;;;;5059443;28;20078;-57
2022/07/02 14:08:05;;;;;;;5.78;2.70;;;;;;;;;;5068259;28;20028;-57
2022/07/02 14:10:31;;;;;;;7.40;3.10;;;;;;;;;;5052128;28;20108;-68
2022/07/02 14:12:57;;;;;;;5.80;3.20;;;;;;;;;;5052878;28;20449;-68
2022/07/02 14:15:24;;;;;;;8.60;3.42;;;;;;;;;;5053334;28;20021;-67
2022/07/02 14:17:50;;;;;;;12.13;3.13;;;;;;;;;;5053014;28;20032;-58
2022/07/02 14:20:16;;;;;;;10.15;2.97;;;;;;;;;;5052811;28;20538;-58
2022/07/02 14:22:42;;;;;;;5.88;2.60;;;;;;;;;;5053318;28;20033;-62
2022/07/02 14:25:08;;;;;;;9.40;2.95;;;;;;;;;;5052938;28;20021;-59
2022/07/02 14:27:34;;;;;;;8.60;2.80;;;;;;;;;;5052229;28;20072;-56
2022/07/02 14:30:00;;;;;;;6.10;2.60;;;;;;;;;;5052634;28;20497;-58
2022/07/02 14:32:26;;;;;;;11.70;3.40;;;;;;;;;;5052937;28;20115;-58
2022/07/02 14:34:52;;;;;;;6.25;2.88;;;;;;;;;;5053007;28;20037;-58
2022/07/02 14:37:19;;;;;;;6.22;2.80;;;;;;;;;;5052823;28;20056;-57
2022/07/02 14:39:45;;;;;;;6.25;2.72;;;;;;;;;;5052399;28;20033;-57